sensor_id;sensor_type;location;lat;lon;timestamp;temperature;humidity
23546;DHT22;11951;52.138;4.464;2022-09-03T00:01:08;20.30;83.40
23546;DHT22;11951;52.138;4.464;2022-09-03T00:03:51;20.30;83.40
23546;DHT22;11951;52.138;4.464;2022-09-03T00:06:22;20.30;83.80
23546;DHT22;11951;52.138;4.464;2022-09-03T00:09:00;20.20;83.50
23546;DHT22;11951;52.138;4.464;2022-09-03T00:11:32;20.30;83.40
23546;DHT22;11951;52.138;4.464;2022-09-03T00:14:02;20.30;83.50
23546;DHT22;11951;52.138;4.464;2022-09-03T00:16:30;20.20;83.80
23546;DHT22;11951;52.138;4.464;2022-09-03T00:18:59;20.20;83.90
23546;DHT22;11951;52.138;4.464;2022-09-03T00:22:09;20.20;84.00
23546;DHT22;11951;52.138;4.464;2022-09-03T00:24:15;20.20;84.00
23546;DHT22;11951;52.138;4.464;2022-09-03T00:26:43;20.10;84.00
23546;DHT22;11951;52.138;4.464;2022-09-03T00:29:14;20.10;84.30
23546;DHT22;11951;52.138;4.464;2022-09-03T00:31:44;20.10;84.40
23546;DHT22;11951;52.138;4.464;2022-09-03T00:34:14;20.00;84.80
23546;DHT22;11951;52.138;4.464;2022-09-03T00:36:42;20.00;85.20
23546;DHT22;11951;52.138;4.464;2022-09-03T00:39:09;19.90;85.30
23546;DHT22;11951;52.138;4.464;2022-09-03T00:41:36;19.90;85.40
23546;DHT22;11951;52.138;4.464;2022-09-03T00:51:27;19.70;86.10
23546;DHT22;11951;52.138;4.464;2022-09-03T00:53:59;19.70;85.90
23546;DHT22;11951;52.138;4.464;2022-09-03T01:01:29;19.60;86.30
23546;DHT22;11951;52.138;4.464;2022-09-03T01:04:11;19.60;86.60
23546;DHT22;11951;52.138;4.464;2022-09-03T01:06:49;19.60;86.50
23546;DHT22;11951;52.138;4.464;2022-09-03T01:09:35;19.60;86.30
23546;DHT22;11951;52.138;4.464;2022-09-03T01:12:12;19.60;86.40
23546;DHT22;11951;52.138;4.464;2022-09-03T01:27:25;19.40;86.80
23546;DHT22;11951;52.138;4.464;2022-09-03T01:29:56;19.40;86.70
23546;DHT22;11951;52.138;4.464;2022-09-03T01:32:29;19.40;86.90
23546;DHT22;11951;52.138;4.464;2022-09-03T01:37:44;19.50;86.70
23546;DHT22;11951;52.138;4.464;2022-09-03T01:40:49;19.50;86.80
23546;DHT22;11951;52.138;4.464;2022-09-03T01:45:36;19.50;86.80
23546;DHT22;11951;52.138;4.464;2022-09-03T01:54:22;19.40;87.40
23546;DHT22;11951;52.138;4.464;2022-09-03T01:59:10;19.40;87.40
23546;DHT22;11951;52.138;4.464;2022-09-03T02:01:44;19.30;87.60
23546;DHT22;11951;52.138;4.464;2022-09-03T02:04:21;19.30;87.80
23546;DHT22;11951;52.138;4.464;2022-09-03T02:06:48;19.20;88.10
23546;DHT22;11951;52.138;4.464;2022-09-03T02:09:17;19.20;88.30
23546;DHT22;11951;52.138;4.464;2022-09-03T02:11:44;19.20;88.20
23546;DHT22;11951;52.138;4.464;2022-09-03T02:14:11;19.10;88.50
23546;DHT22;11951;52.138;4.464;2022-09-03T02:16:37;19.00;88.80
23546;DHT22;11951;52.138;4.464;2022-09-03T02:19:04;19.00;89.10
23546;DHT22;11951;52.138;4.464;2022-09-03T02:21:32;18.90;89.30
23546;DHT22;11951;52.138;4.464;2022-09-03T02:23:58;18.90;89.20
23546;DHT22;11951;52.138;4.464;2022-09-03T02:26:25;18.90;89.60
23546;DHT22;11951;52.138;4.464;2022-09-03T02:28:51;18.80;89.80
23546;DHT22;11951;52.138;4.464;2022-09-03T02:31:17;18.80;89.70
23546;DHT22;11951;52.138;4.464;2022-09-03T02:33:44;18.80;89.90
23546;DHT22;11951;52.138;4.464;2022-09-03T02:36:11;18.80;90.10
23546;DHT22;11951;52.138;4.464;2022-09-03T02:38:37;18.70;90.20
23546;DHT22;11951;52.138;4.464;2022-09-03T02:41:05;18.70;90.30
23546;DHT22;11951;52.138;4.464;2022-09-03T02:43:36;18.70;90.60
23546;DHT22;11951;52.138;4.464;2022-09-03T02:46:03;18.60;91.10
23546;DHT22;11951;52.138;4.464;2022-09-03T02:48:30;18.60;91.10
23546;DHT22;11951;52.138;4.464;2022-09-03T02:50:56;18.50;91.40
23546;DHT22;11951;52.138;4.464;2022-09-03T02:53:21;18.50;91.50
23546;DHT22;11951;52.138;4.464;2022-09-03T02:55:47;18.50;91.60
23546;DHT22;11951;52.138;4.464;2022-09-03T02:58:12;18.40;91.90
23546;DHT22;11951;52.138;4.464;2022-09-03T03:00:38;18.40;92.00
23546;DHT22;11951;52.138;4.464;2022-09-03T03:03:04;18.40;92.10
23546;DHT22;11951;52.138;4.464;2022-09-03T03:05:43;18.30;92.30
23546;DHT22;11951;52.138;4.464;2022-09-03T03:08:09;18.30;92.30
23546;DHT22;11951;52.138;4.464;2022-09-03T03:10:36;18.30;92.50
23546;DHT22;11951;52.138;4.464;2022-09-03T03:13:02;18.20;92.70
23546;DHT22;11951;52.138;4.464;2022-09-03T03:15:28;18.20;92.70
23546;DHT22;11951;52.138;4.464;2022-09-03T03:17:57;18.20;92.80
23546;DHT22;11951;52.138;4.464;2022-09-03T03:20:23;18.10;92.90
23546;DHT22;11951;52.138;4.464;2022-09-03T03:22:48;18.10;92.90
23546;DHT22;11951;52.138;4.464;2022-09-03T03:25:14;18.20;93.20
23546;DHT22;11951;52.138;4.464;2022-09-03T03:27:39;18.20;93.00
23546;DHT22;11951;52.138;4.464;2022-09-03T03:30:08;18.10;93.40
23546;DHT22;11951;52.138;4.464;2022-09-03T03:32:34;18.10;93.10
23546;DHT22;11951;52.138;4.464;2022-09-03T03:35:00;18.00;93.10
23546;DHT22;11951;52.138;4.464;2022-09-03T03:37:26;18.00;92.90
23546;DHT22;11951;52.138;4.464;2022-09-03T03:39:51;18.00;93.00
23546;DHT22;11951;52.138;4.464;2022-09-03T03:42:17;18.00;93.20
23546;DHT22;11951;52.138;4.464;2022-09-03T03:44:42;18.00;93.40
23546;DHT22;11951;52.138;4.464;2022-09-03T03:47:08;18.00;93.50
23546;DHT22;11951;52.138;4.464;2022-09-03T03:49:33;17.90;93.80
23546;DHT22;11951;52.138;4.464;2022-09-03T03:51:59;17.90;93.80
23546;DHT22;11951;52.138;4.464;2022-09-03T03:54:24;17.90;93.90
23546;DHT22;11951;52.138;4.464;2022-09-03T03:56:50;17.90;94.10
23546;DHT22;11951;52.138;4.464;2022-09-03T03:59:16;17.90;93.80
23546;DHT22;11951;52.138;4.464;2022-09-03T04:01:41;17.90;94.10
23546;DHT22;11951;52.138;4.464;2022-09-03T04:04:07;17.80;94.30
23546;DHT22;11951;52.138;4.464;2022-09-03T04:06:32;17.80;94.40
23546;DHT22;11951;52.138;4.464;2022-09-03T04:08:58;17.80;94.70
23546;DHT22;11951;52.138;4.464;2022-09-03T04:11:23;17.80;94.60
23546;DHT22;11951;52.138;4.464;2022-09-03T04:13:49;17.70;95.00
23546;DHT22;11951;52.138;4.464;2022-09-03T04:16:16;17.70;95.00
23546;DHT22;11951;52.138;4.464;2022-09-03T04:18:42;17.70;95.00
23546;DHT22;11951;52.138;4.464;2022-09-03T04:21:12;17.70;95.20
23546;DHT22;11951;52.138;4.464;2022-09-03T04:23:39;17.60;95.20
23546;DHT22;11951;52.138;4.464;2022-09-03T04:26:05;17.60;95.30
23546;DHT22;11951;52.138;4.464;2022-09-03T04:28:31;17.60;95.40
23546;DHT22;11951;52.138;4.464;2022-09-03T04:31:04;17.60;95.40
23546;DHT22;11951;52.138;4.464;2022-09-03T04:33:30;17.60;95.40
23546;DHT22;11951;52.138;4.464;2022-09-03T04:36:10;17.60;95.50
23546;DHT22;11951;52.138;4.464;2022-09-03T04:38:36;17.50;95.10
23546;DHT22;11951;52.138;4.464;2022-09-03T04:41:03;17.50;95.50
23546;DHT22;11951;52.138;4.464;2022-09-03T04:43:28;17.50;95.30
23546;DHT22;11951;52.138;4.464;2022-09-03T04:45:57;17.50;95.60
23546;DHT22;11951;52.138;4.464;2022-09-03T04:48:23;17.50;95.30
23546;DHT22;11951;52.138;4.464;2022-09-03T04:50:49;17.50;95.60
23546;DHT22;11951;52.138;4.464;2022-09-03T04:53:14;17.50;95.70
23546;DHT22;11951;52.138;4.464;2022-09-03T04:55:40;17.40;95.40
23546;DHT22;11951;52.138;4.464;2022-09-03T04:58:05;17.50;95.50
23546;DHT22;11951;52.138;4.464;2022-09-03T05:00:37;17.50;95.20
23546;DHT22;11951;52.138;4.464;2022-09-03T05:03:03;17.50;95.30
23546;DHT22;11951;52.138;4.464;2022-09-03T05:05:32;17.50;95.10
23546;DHT22;11951;52.138;4.464;2022-09-03T05:07:58;17.50;95.20
23546;DHT22;11951;52.138;4.464;2022-09-03T05:10:26;17.50;95.20
23546;DHT22;11951;52.138;4.464;2022-09-03T05:13:25;17.40;95.40
23546;DHT22;11951;52.138;4.464;2022-09-03T05:15:43;17.40;95.60
23546;DHT22;11951;52.138;4.464;2022-09-03T05:18:09;17.40;95.60
23546;DHT22;11951;52.138;4.464;2022-09-03T05:20:35;17.50;95.60
23546;DHT22;11951;52.138;4.464;2022-09-03T05:23:01;17.50;95.30
23546;DHT22;11951;52.138;4.464;2022-09-03T05:25:30;17.50;95.50
23546;DHT22;11951;52.138;4.464;2022-09-03T05:27:59;17.60;95.60
23546;DHT22;11951;52.138;4.464;2022-09-03T05:30:26;17.60;95.60
23546;DHT22;11951;52.138;4.464;2022-09-03T05:32:51;17.60;95.70
23546;DHT22;11951;52.138;4.464;2022-09-03T05:35:17;17.50;96.00
23546;DHT22;11951;52.138;4.464;2022-09-03T05:37:43;17.60;95.90
23546;DHT22;11951;52.138;4.464;2022-09-03T05:40:08;17.60;95.90
23546;DHT22;11951;52.138;4.464;2022-09-03T05:42:37;17.60;96.20
23546;DHT22;11951;52.138;4.464;2022-09-03T05:45:07;17.60;96.10
23546;DHT22;11951;52.138;4.464;2022-09-03T05:47:35;17.60;96.30
23546;DHT22;11951;52.138;4.464;2022-09-03T05:50:01;17.60;96.50
23546;DHT22;11951;52.138;4.464;2022-09-03T05:52:27;17.60;96.40
23546;DHT22;11951;52.138;4.464;2022-09-03T05:54:52;17.60;96.30
23546;DHT22;11951;52.138;4.464;2022-09-03T05:57:18;17.60;96.50
23546;DHT22;11951;52.138;4.464;2022-09-03T05:59:43;17.60;96.50
23546;DHT22;11951;52.138;4.464;2022-09-03T06:02:09;17.60;96.40
23546;DHT22;11951;52.138;4.464;2022-09-03T06:04:35;17.70;96.50
23546;DHT22;11951;52.138;4.464;2022-09-03T06:07:00;17.70;96.60
23546;DHT22;11951;52.138;4.464;2022-09-03T06:09:26;17.70;96.50
23546;DHT22;11951;52.138;4.464;2022-09-03T06:11:51;17.70;96.80
23546;DHT22;11951;52.138;4.464;2022-09-03T06:14:18;17.80;96.80
23546;DHT22;11951;52.138;4.464;2022-09-03T06:16:45;17.90;96.90
23546;DHT22;11951;52.138;4.464;2022-09-03T06:19:13;17.90;96.90
23546;DHT22;11951;52.138;4.464;2022-09-03T06:21:40;17.90;97.10
23546;DHT22;11951;52.138;4.464;2022-09-03T06:24:11;17.90;97.10
23546;DHT22;11951;52.138;4.464;2022-09-03T06:26:46;17.90;97.10
23546;DHT22;11951;52.138;4.464;2022-09-03T06:29:12;17.90;97.10
23546;DHT22;11951;52.138;4.464;2022-09-03T06:31:38;17.90;97.10
23546;DHT22;11951;52.138;4.464;2022-09-03T06:34:04;18.10;97.10
23546;DHT22;11951;52.138;4.464;2022-09-03T06:36:30;18.10;97.10
23546;DHT22;11951;52.138;4.464;2022-09-03T06:38:56;18.20;97.10
23546;DHT22;11951;52.138;4.464;2022-09-03T06:41:24;18.30;97.10
23546;DHT22;11951;52.138;4.464;2022-09-03T06:43:50;18.30;97.00
23546;DHT22;11951;52.138;4.464;2022-09-03T06:46:17;18.40;96.90
23546;DHT22;11951;52.138;4.464;2022-09-03T06:48:43;18.40;96.80
23546;DHT22;11951;52.138;4.464;2022-09-03T06:51:11;18.40;96.90
23546;DHT22;11951;52.138;4.464;2022-09-03T06:53:37;18.50;96.50
23546;DHT22;11951;52.138;4.464;2022-09-03T06:56:04;18.70;96.60
23546;DHT22;11951;52.138;4.464;2022-09-03T06:58:34;18.80;96.50
23546;DHT22;11951;52.138;4.464;2022-09-03T07:01:07;18.90;96.40
23546;DHT22;11951;52.138;4.464;2022-09-03T07:03:36;19.00;96.50
23546;DHT22;11951;52.138;4.464;2022-09-03T07:06:02;19.10;95.80
23546;DHT22;11951;52.138;4.464;2022-09-03T07:08:29;19.10;95.70
23546;DHT22;11951;52.138;4.464;2022-09-03T07:10:58;19.20;95.30
23546;DHT22;11951;52.138;4.464;2022-09-03T07:13:24;19.30;94.40
23546;DHT22;11951;52.138;4.464;2022-09-03T07:16:03;19.40;93.80
23546;DHT22;11951;52.138;4.464;2022-09-03T07:18:29;19.50;92.90
23546;DHT22;11951;52.138;4.464;2022-09-03T07:21:03;19.50;92.40
23546;DHT22;11951;52.138;4.464;2022-09-03T07:23:29;19.60;92.30
23546;DHT22;11951;52.138;4.464;2022-09-03T07:25:58;19.60;92.00
23546;DHT22;11951;52.138;4.464;2022-09-03T07:28:25;19.70;92.00
23546;DHT22;11951;52.138;4.464;2022-09-03T07:30:51;19.70;91.90
23546;DHT22;11951;52.138;4.464;2022-09-03T07:33:17;19.80;91.80
23546;DHT22;11951;52.138;4.464;2022-09-03T07:35:43;19.90;91.30
23546;DHT22;11951;52.138;4.464;2022-09-03T07:38:09;20.00;91.70
23546;DHT22;11951;52.138;4.464;2022-09-03T07:40:35;20.30;90.40
23546;DHT22;11951;52.138;4.464;2022-09-03T07:43:03;20.50;90.40
23546;DHT22;11951;52.138;4.464;2022-09-03T07:45:29;20.60;89.40
23546;DHT22;11951;52.138;4.464;2022-09-03T07:47:55;20.80;88.90
23546;DHT22;11951;52.138;4.464;2022-09-03T07:50:21;20.80;88.60
23546;DHT22;11951;52.138;4.464;2022-09-03T07:52:46;21.00;88.10
23546;DHT22;11951;52.138;4.464;2022-09-03T07:55:12;21.10;88.40
23546;DHT22;11951;52.138;4.464;2022-09-03T07:57:38;21.20;87.80
23546;DHT22;11951;52.138;4.464;2022-09-03T08:00:05;21.30;87.50
23546;DHT22;11951;52.138;4.464;2022-09-03T08:02:33;21.40;87.60
23546;DHT22;11951;52.138;4.464;2022-09-03T08:04:58;21.40;87.10
23546;DHT22;11951;52.138;4.464;2022-09-03T08:07:25;21.60;87.50
23546;DHT22;11951;52.138;4.464;2022-09-03T08:09:50;21.60;87.30
23546;DHT22;11951;52.138;4.464;2022-09-03T08:12:16;21.70;87.60
23546;DHT22;11951;52.138;4.464;2022-09-03T08:14:42;21.90;87.40
23546;DHT22;11951;52.138;4.464;2022-09-03T08:17:07;22.10;86.80
23546;DHT22;11951;52.138;4.464;2022-09-03T08:19:33;22.10;86.20
23546;DHT22;11951;52.138;4.464;2022-09-03T08:21:59;22.30;86.30
23546;DHT22;11951;52.138;4.464;2022-09-03T08:24:25;22.40;86.80
23546;DHT22;11951;52.138;4.464;2022-09-03T08:27:00;22.50;85.40
23546;DHT22;11951;52.138;4.464;2022-09-03T08:29:25;22.50;84.60
23546;DHT22;11951;52.138;4.464;2022-09-03T08:31:51;22.50;85.90
23546;DHT22;11951;52.138;4.464;2022-09-03T08:34:17;22.60;85.20
23546;DHT22;11951;52.138;4.464;2022-09-03T08:36:43;22.70;86.50
23546;DHT22;11951;52.138;4.464;2022-09-03T08:39:11;22.80;85.40
23546;DHT22;11951;52.138;4.464;2022-09-03T08:46:52;22.80;86.40
23546;DHT22;11951;52.138;4.464;2022-09-03T08:51:48;22.90;86.10
23546;DHT22;11951;52.138;4.464;2022-09-03T08:54:15;23.10;84.70
23546;DHT22;11951;52.138;4.464;2022-09-03T08:56:42;23.30;85.10
23546;DHT22;11951;52.138;4.464;2022-09-03T08:59:08;23.50;85.10
23546;DHT22;11951;52.138;4.464;2022-09-03T09:06:45;23.80;82.00
23546;DHT22;11951;52.138;4.464;2022-09-03T09:22:13;24.30;81.50
23546;DHT22;11951;52.138;4.464;2022-09-03T09:24:43;24.30;81.50
23546;DHT22;11951;52.138;4.464;2022-09-03T09:27:15;24.60;81.70
23546;DHT22;11951;52.138;4.464;2022-09-03T09:29:41;25.00;80.30
23546;DHT22;11951;52.138;4.464;2022-09-03T09:32:08;25.00;79.90
23546;DHT22;11951;52.138;4.464;2022-09-03T09:34:35;25.10;80.00
23546;DHT22;11951;52.138;4.464;2022-09-03T09:37:02;25.10;79.30
23546;DHT22;11951;52.138;4.464;2022-09-03T09:39:28;25.10;80.40
23546;DHT22;11951;52.138;4.464;2022-09-03T09:42:03;25.20;78.50
23546;DHT22;11951;52.138;4.464;2022-09-03T09:44:33;25.20;79.90
23546;DHT22;11951;52.138;4.464;2022-09-03T09:47:03;25.50;78.90
23546;DHT22;11951;52.138;4.464;2022-09-03T09:49:37;25.60;79.10
23546;DHT22;11951;52.138;4.464;2022-09-03T09:52:09;25.80;78.90
23546;DHT22;11951;52.138;4.464;2022-09-03T09:54:39;25.90;77.40
23546;DHT22;11951;52.138;4.464;2022-09-03T09:57:06;25.90;76.70
23546;DHT22;11951;52.138;4.464;2022-09-03T09:59:32;25.90;77.10
23546;DHT22;11951;52.138;4.464;2022-09-03T10:04:37;26.10;76.90
23546;DHT22;11951;52.138;4.464;2022-09-03T10:07:04;26.30;77.70
23546;DHT22;11951;52.138;4.464;2022-09-03T10:09:32;26.50;76.00
23546;DHT22;11951;52.138;4.464;2022-09-03T10:12:03;26.60;76.20
23546;DHT22;11951;52.138;4.464;2022-09-03T10:14:39;26.70;75.10
23546;DHT22;11951;52.138;4.464;2022-09-03T10:22:46;26.60;75.40
23546;DHT22;11951;52.138;4.464;2022-09-03T10:25:14;26.70;76.10
23546;DHT22;11951;52.138;4.464;2022-09-03T10:27:40;26.90;75.10
23546;DHT22;11951;52.138;4.464;2022-09-03T10:30:09;27.00;76.00
23546;DHT22;11951;52.138;4.464;2022-09-03T10:35:05;27.20;74.70
23546;DHT22;11951;52.138;4.464;2022-09-03T10:37:43;27.30;75.80
23546;DHT22;11951;52.138;4.464;2022-09-03T10:40:17;27.40;74.10
23546;DHT22;11951;52.138;4.464;2022-09-03T10:45:37;27.40;73.50
23546;DHT22;11951;52.138;4.464;2022-09-03T10:50:51;27.30;74.30
23546;DHT22;11951;52.138;4.464;2022-09-03T10:53:20;27.40;74.10
23546;DHT22;11951;52.138;4.464;2022-09-03T10:58:30;27.80;72.70
23546;DHT22;11951;52.138;4.464;2022-09-03T11:03:55;27.60;71.60
23546;DHT22;11951;52.138;4.464;2022-09-03T11:06:23;27.40;71.80
23546;DHT22;11951;52.138;4.464;2022-09-03T11:09:01;27.50;72.70
23546;DHT22;11951;52.138;4.464;2022-09-03T11:11:32;27.70;72.60
23546;DHT22;11951;52.138;4.464;2022-09-03T11:14:07;27.90;72.50
23546;DHT22;11951;52.138;4.464;2022-09-03T11:16:44;27.90;72.00
23546;DHT22;11951;52.138;4.464;2022-09-03T11:19:13;27.90;71.90
23546;DHT22;11951;52.138;4.464;2022-09-03T11:21:41;28.00;71.80
23546;DHT22;11951;52.138;4.464;2022-09-03T11:26:33;27.90;72.70
23546;DHT22;11951;52.138;4.464;2022-09-03T11:29:11;28.00;73.50
23546;DHT22;11951;52.138;4.464;2022-09-03T11:31:58;28.10;72.70
23546;DHT22;11951;52.138;4.464;2022-09-03T11:34:27;28.20;72.10
23546;DHT22;11951;52.138;4.464;2022-09-03T11:37:06;28.00;71.50
23546;DHT22;11951;52.138;4.464;2022-09-03T11:39:33;28.00;71.40
23546;DHT22;11951;52.138;4.464;2022-09-03T11:42:00;28.10;72.80
23546;DHT22;11951;52.138;4.464;2022-09-03T11:44:35;28.30;71.80
23546;DHT22;11951;52.138;4.464;2022-09-03T11:47:11;28.50;71.40
23546;DHT22;11951;52.138;4.464;2022-09-03T11:49:42;28.70;71.40
23546;DHT22;11951;52.138;4.464;2022-09-03T11:52:08;28.90;71.00
23546;DHT22;11951;52.138;4.464;2022-09-03T11:54:45;28.90;70.60
23546;DHT22;11951;52.138;4.464;2022-09-03T11:57:12;29.10;71.00
23546;DHT22;11951;52.138;4.464;2022-09-03T11:59:39;29.20;69.60
23546;DHT22;11951;52.138;4.464;2022-09-03T12:04:49;29.10;70.40
23546;DHT22;11951;52.138;4.464;2022-09-03T12:09:57;29.20;70.00
23546;DHT22;11951;52.138;4.464;2022-09-03T12:12:36;29.50;70.10
23546;DHT22;11951;52.138;4.464;2022-09-03T12:15:48;29.70;69.90
23546;DHT22;11951;52.138;4.464;2022-09-03T12:17:55;29.80;70.00
23546;DHT22;11951;52.138;4.464;2022-09-03T12:20:40;29.90;69.70
23546;DHT22;11951;52.138;4.464;2022-09-03T12:23:09;29.90;69.40
23546;DHT22;11951;52.138;4.464;2022-09-03T12:25:35;29.90;68.50
23546;DHT22;11951;52.138;4.464;2022-09-03T12:28:10;30.10;68.50
23546;DHT22;11951;52.138;4.464;2022-09-03T12:30:36;30.30;68.40
23546;DHT22;11951;52.138;4.464;2022-09-03T12:33:04;30.40;68.00
23546;DHT22;11951;52.138;4.464;2022-09-03T12:35:30;30.50;66.00
23546;DHT22;11951;52.138;4.464;2022-09-03T12:37:55;30.50;66.20
23546;DHT22;11951;52.138;4.464;2022-09-03T12:40:22;30.90;66.50
23546;DHT22;11951;52.138;4.464;2022-09-03T12:42:48;31.20;66.10
23546;DHT22;11951;52.138;4.464;2022-09-03T12:45:14;31.30;65.80
23546;DHT22;11951;52.138;4.464;2022-09-03T12:47:43;31.00;64.50
23546;DHT22;11951;52.138;4.464;2022-09-03T12:50:13;30.90;64.50
23546;DHT22;11951;52.138;4.464;2022-09-03T12:55:13;30.70;65.60
23546;DHT22;11951;52.138;4.464;2022-09-03T12:57:44;30.80;65.30
23546;DHT22;11951;52.138;4.464;2022-09-03T13:00:13;30.90;64.30
23546;DHT22;11951;52.138;4.464;2022-09-03T13:02:48;31.10;64.80
23546;DHT22;11951;52.138;4.464;2022-09-03T13:05:16;31.10;64.30
23546;DHT22;11951;52.138;4.464;2022-09-03T13:07:44;31.20;64.70
23546;DHT22;11951;52.138;4.464;2022-09-03T13:10:33;31.10;64.60
23546;DHT22;11951;52.138;4.464;2022-09-03T13:13:00;31.20;64.20
23546;DHT22;11951;52.138;4.464;2022-09-03T13:15:26;31.40;64.20
23546;DHT22;11951;52.138;4.464;2022-09-03T13:20:40;31.60;62.50
23546;DHT22;11951;52.138;4.464;2022-09-03T13:23:55;31.60;63.80
23546;DHT22;11951;52.138;4.464;2022-09-03T13:26:05;31.60;64.90
23546;DHT22;11951;52.138;4.464;2022-09-03T13:29:22;31.60;64.50
23546;DHT22;11951;52.138;4.464;2022-09-03T13:31:28;31.50;65.30
23546;DHT22;11951;52.138;4.464;2022-09-03T13:34:06;31.70;64.70
23546;DHT22;11951;52.138;4.464;2022-09-03T13:39:34;31.40;63.00
23546;DHT22;11951;52.138;4.464;2022-09-03T13:42:08;31.40;63.90
23546;DHT22;11951;52.138;4.464;2022-09-03T13:44:39;31.60;63.50
23546;DHT22;11951;52.138;4.464;2022-09-03T13:47:25;31.70;64.80
23546;DHT22;11951;52.138;4.464;2022-09-03T13:49:53;31.70;63.60
23546;DHT22;11951;52.138;4.464;2022-09-03T13:55:16;31.80;64.20
23546;DHT22;11951;52.138;4.464;2022-09-03T13:57:45;31.90;63.90
23546;DHT22;11951;52.138;4.464;2022-09-03T14:00:21;31.90;64.10
23546;DHT22;11951;52.138;4.464;2022-09-03T14:02:57;31.70;63.60
23546;DHT22;11951;52.138;4.464;2022-09-03T14:15:40;31.20;64.50
23546;DHT22;11951;52.138;4.464;2022-09-03T14:18:12;31.20;64.60
23546;DHT22;11951;52.138;4.464;2022-09-03T14:25:56;30.90;65.00
23546;DHT22;11951;52.138;4.464;2022-09-03T14:28:57;30.80;65.80
23546;DHT22;11951;52.138;4.464;2022-09-03T14:31:20;30.80;64.80
23546;DHT22;11951;52.138;4.464;2022-09-03T14:39:08;31.00;65.30
23546;DHT22;11951;52.138;4.464;2022-09-03T14:46:41;30.90;64.10
23546;DHT22;11951;52.138;4.464;2022-09-03T15:00:20;30.30;65.30
23546;DHT22;11951;52.138;4.464;2022-09-03T15:02:48;30.20;66.40
23546;DHT22;11951;52.138;4.464;2022-09-03T15:07:55;30.20;65.70
23546;DHT22;11951;52.138;4.464;2022-09-03T15:15:35;30.00;66.40
23546;DHT22;11951;52.138;4.464;2022-09-03T15:20:53;30.10;66.60
23546;DHT22;11951;52.138;4.464;2022-09-03T15:33:47;29.70;65.90
23546;DHT22;11951;52.138;4.464;2022-09-03T15:36:16;29.70;66.60
23546;DHT22;11951;52.138;4.464;2022-09-03T15:38:46;29.80;67.00
23546;DHT22;11951;52.138;4.464;2022-09-03T15:41:23;29.80;67.30
23546;DHT22;11951;52.138;4.464;2022-09-03T15:43:56;29.70;66.50
23546;DHT22;11951;52.138;4.464;2022-09-03T15:54:41;29.40;67.20
23546;DHT22;11951;52.138;4.464;2022-09-03T16:02:24;29.00;68.40
23546;DHT22;11951;52.138;4.464;2022-09-03T16:10:14;28.80;68.90
23546;DHT22;11951;52.138;4.464;2022-09-03T16:15:23;28.70;70.00
23546;DHT22;11951;52.138;4.464;2022-09-03T16:17:52;28.70;70.10
23546;DHT22;11951;52.138;4.464;2022-09-03T16:20:20;28.50;69.90
23546;DHT22;11951;52.138;4.464;2022-09-03T16:22:48;28.50;70.30
23546;DHT22;11951;52.138;4.464;2022-09-03T16:26:02;28.40;70.10
23546;DHT22;11951;52.138;4.464;2022-09-03T16:28:08;28.40;70.50
23546;DHT22;11951;52.138;4.464;2022-09-03T16:48:25;27.80;71.20
23546;DHT22;11951;52.138;4.464;2022-09-03T16:51:09;27.70;73.60
23546;DHT22;11951;52.138;4.464;2022-09-03T17:04:27;27.30;75.40
23546;DHT22;11951;52.138;4.464;2022-09-03T17:06:55;27.20;75.70
23546;DHT22;11951;52.138;4.464;2022-09-03T17:12:01;27.10;75.50
23546;DHT22;11951;52.138;4.464;2022-09-03T17:19:33;26.90;75.30
23546;DHT22;11951;52.138;4.464;2022-09-03T17:22:19;26.90;74.90
23546;DHT22;11951;52.138;4.464;2022-09-03T17:24:49;26.90;75.90
23546;DHT22;11951;52.138;4.464;2022-09-03T17:38:12;26.60;77.60
23546;DHT22;11951;52.138;4.464;2022-09-03T17:45:58;26.40;77.70
23546;DHT22;11951;52.138;4.464;2022-09-03T17:48:39;26.30;77.90
23546;DHT22;11951;52.138;4.464;2022-09-03T17:53:52;26.10;79.70
23546;DHT22;11951;52.138;4.464;2022-09-03T17:58:48;26.00;80.60
23546;DHT22;11951;52.138;4.464;2022-09-03T18:01:20;25.90;78.80
23546;DHT22;11951;52.138;4.464;2022-09-03T18:03:53;25.80;79.00
23546;DHT22;11951;52.138;4.464;2022-09-03T18:08:52;25.70;78.60
23546;DHT22;11951;52.138;4.464;2022-09-03T18:11:22;25.70;79.60
23546;DHT22;11951;52.138;4.464;2022-09-03T18:16:39;25.60;78.70
23546;DHT22;11951;52.138;4.464;2022-09-03T18:22:20;25.50;79.90
23546;DHT22;11951;52.138;4.464;2022-09-03T18:25:05;25.40;80.70
23546;DHT22;11951;52.138;4.464;2022-09-03T18:27:55;25.30;80.10
23546;DHT22;11951;52.138;4.464;2022-09-03T18:30:43;25.20;79.20
23546;DHT22;11951;52.138;4.464;2022-09-03T18:33:27;25.20;80.10
23546;DHT22;11951;52.138;4.464;2022-09-03T18:36:12;25.10;80.30
23546;DHT22;11951;52.138;4.464;2022-09-03T18:38:57;25.00;79.20
23546;DHT22;11951;52.138;4.464;2022-09-03T18:56:49;24.60;84.30
23546;DHT22;11951;52.138;4.464;2022-09-03T18:59:45;24.60;84.90
23546;DHT22;11951;52.138;4.464;2022-09-03T19:03:08;24.60;86.10
23546;DHT22;11951;52.138;4.464;2022-09-03T19:05:47;24.50;85.60
23546;DHT22;11951;52.138;4.464;2022-09-03T19:08:48;24.50;86.90
23546;DHT22;11951;52.138;4.464;2022-09-03T19:11:36;24.50;87.10
23546;DHT22;11951;52.138;4.464;2022-09-03T19:17:14;24.50;86.10
23546;DHT22;11951;52.138;4.464;2022-09-03T19:22:45;24.50;84.90
23546;DHT22;11951;52.138;4.464;2022-09-03T19:25:29;24.40;85.80
23546;DHT22;11951;52.138;4.464;2022-09-03T19:28:18;24.40;85.10
23546;DHT22;11951;52.138;4.464;2022-09-03T19:34:10;24.50;84.20
23546;DHT22;11951;52.138;4.464;2022-09-03T19:50:40;24.30;85.80
23546;DHT22;11951;52.138;4.464;2022-09-03T19:53:26;24.20;85.80
23546;DHT22;11951;52.138;4.464;2022-09-03T19:56:18;24.20;84.60
23546;DHT22;11951;52.138;4.464;2022-09-03T19:59:05;24.20;84.80
23546;DHT22;11951;52.138;4.464;2022-09-03T20:01:52;24.20;84.80
23546;DHT22;11951;52.138;4.464;2022-09-03T20:04:38;24.20;84.80
23546;DHT22;11951;52.138;4.464;2022-09-03T20:07:23;24.20;85.20
23546;DHT22;11951;52.138;4.464;2022-09-03T20:10:10;24.10;86.10
23546;DHT22;11951;52.138;4.464;2022-09-03T20:15:45;24.00;84.90
23546;DHT22;11951;52.138;4.464;2022-09-03T20:21:11;24.00;85.30
23546;DHT22;11951;52.138;4.464;2022-09-03T20:31:20;23.80;86.40
23546;DHT22;11951;52.138;4.464;2022-09-03T20:34:08;23.80;87.50
23546;DHT22;11951;52.138;4.464;2022-09-03T20:36:43;23.70;87.70
23546;DHT22;11951;52.138;4.464;2022-09-03T20:39:31;23.70;87.50
23546;DHT22;11951;52.138;4.464;2022-09-03T20:52:11;23.30;89.70
23546;DHT22;11951;52.138;4.464;2022-09-03T20:54:52;23.20;90.20
23546;DHT22;11951;52.138;4.464;2022-09-03T20:57:30;23.20;90.60
23546;DHT22;11951;52.138;4.464;2022-09-03T21:18:01;22.60;92.80
23546;DHT22;11951;52.138;4.464;2022-09-03T21:25:30;22.40;93.80
23546;DHT22;11951;52.138;4.464;2022-09-03T21:28:04;22.40;94.00